Eureka, NV

8:02 AM PDT on April 24, 2017 (GMT -0700)
Eureka | | Change Station
Active Advisory: Flood Warning

Elev 6539 ft 39.52 °N, 115.97 °W | Updated 9 minutes ago

Overcast
Overcast
47 °F
Feels Like 47 °F
N
12
Wind Variable Wind from WSW

Today
High -- | Low -- °F
--% Chance of Precip.
Yesterday
High -- | Low -- °F
Precip. -- in
Pressure 29.66 in
Visibility -9999.0 miles
Clouds
Dew Point 24 °F
Humidity 41%
Rainfall 0.00 in
Snow Depth Not available.
5:53 AM 7:31 PM
Waning Crescent, 5% visible
METAR KP68 241453Z AUTO 25010KT 08/M04 A2979 RMK AO1 SLP044 T00831044 58008
Pressure 29.66 in
Visibility -9999.0 miles
Clouds
Dew Point 24 °F
Humidity 41%
Rainfall 0.00 in
Snow Depth Not available.
5:53 AM 7:31 PM
Waning Crescent, 5% visible
METAR KP68 241453Z AUTO 25010KT 08/M04 A2979 RMK AO1 SLP044 T00831044 58008

Get Your Daily Forecast Email!

Thanks for signing up!

Be on the lookout for a verification email in your inbox.

You'll start receiving severe weather alerts in your inbox..

×

10-Day Weather Forecast

Almanac

Astronomy

Apr. 24, 2017 Rise Set
Actual Time
Civil Twilight
Nautical Twilight
Astronomical Twilight
Moon
Length of Visible Light
Length of Day
Tomorrow will be .
, % of the Moon is Illuminated

Today's Extremes

State Highs State Lows

Community

WunderPhotos

WunderBlog® & News

Nearby

Air Quality

  Air Quality AQ Index Pollutant
Not available.

Snow Depth

Station Depth Elevation

Earthquake Activity

City Distance Mag. Time & Date
Minimum magnitude displayed is 2.5.

Coastal Water Temperatures

Place Temperature

Stations

Nearby Weather Stations

Station Location Temp. Windchill Dew Point Humidity Wind Precip. Elev Updated Type
                   

Watches & Warnings

Flood Warning
Issued: 3:35 AM PDT Apr. 24, 2017 – National Weather Service

The Flood Warning continues for
the Humboldt River at Battle Mountain.
* Until further notice.
* At 2:15 am Monday the stage was 9.9 feet.
* Flood stage is 9.5 feet.
* Minor flooding is occurring and forecast to continue.
* Impact... at 10.0 feet... minor to moderate lowland flooding
throughout reach. Some rural roads near the river are flooded.


Lat... Lon 4074 11638 4055 11649 4060 11691 4076 11710 4093 11704